Time;durP1;ratioP1;P1;durP2;ratioP2;P2;SDS_P1;SDS_P2;PMS_P1;PMS_P2;Temp;Humidity;BMP_temperature;BMP_pressure;BME280_temperature;BME280_humidity;BME280_pressure;Samples;Min_cycle;Max_cycle;Signal;HPM_P1;HPM_P2
2022/04/29 00:00:10;;;;;;;9.45;6.82;;;;;;;15.47;84.47;100559.66;5029416;28;20029;-29
2022/04/29 00:02:36;;;;;;;9.00;6.53;;;;;;;15.31;85.13;100546.97;5029165;28;20030;-29
2022/04/29 00:05:02;;;;;;;8.40;6.70;;;;;;;15.31;85.37;100568.47;5027767;28;20034;-29
2022/04/29 00:07:28;;;;;;;10.43;6.82;;;;;;;15.51;85.03;100560.81;5029244;28;20029;-31
2022/04/29 00:09:53;;;;;;;10.52;7.18;;;;;;;15.28;85.83;100553.59;5029459;28;20183;-29
2022/04/29 00:12:19;;;;;;;10.27;7.13;;;;;;;15.33;84.58;100552.91;5029098;28;20410;-29
2022/04/29 00:14:45;;;;;;;8.00;6.55;;;;;;;15.36;84.55;100542.47;5027369;28;20060;-29
2022/04/29 00:17:11;;;;;;;9.55;6.95;;;;;;;15.47;83.96;100546.22;5028881;28;20037;-29
2022/04/29 00:19:37;;;;;;;9.32;7.40;;;;;;;15.33;83.67;100558.28;5027779;28;20132;-29
2022/04/29 00:22:03;;;;;;;9.05;7.47;;;;;;;15.23;83.40;100557.00;5028692;28;20434;-29
2022/04/29 00:24:29;;;;;;;10.98;7.13;;;;;;;15.35;83.50;100558.88;5026777;28;20040;-31
2022/04/29 00:26:54;;;;;;;11.23;7.43;;;;;;;15.28;84.46;100537.47;5028562;28;20490;-32
2022/04/29 00:29:20;;;;;;;9.70;7.57;;;;;;;15.31;84.78;100549.66;5028657;28;20042;-31
2022/04/29 00:31:46;;;;;;;9.15;6.90;;;;;;;15.04;85.61;100524.13;5028458;28;20033;-30
2022/04/29 00:34:11;;;;;;;11.02;7.53;;;;;;;15.16;85.40;100524.09;5029265;28;20063;-33
2022/04/29 00:36:37;;;;;;;11.10;7.45;;;;;;;14.90;87.93;100543.44;5028485;28;20041;-31
2022/04/29 00:39:03;;;;;;;10.38;7.60;;;;;;;15.02;85.60;100536.16;5028451;28;20060;-32
2022/04/29 00:41:28;;;;;;;10.68;7.38;;;;;;;15.09;84.34;100542.22;5028588;28;20029;-33
2022/04/29 00:44:05;;;;;;;10.75;7.05;;;;;;;15.09;83.49;100550.28;5028523;28;20021;-29
2022/04/29 00:46:37;;;;;;;8.40;6.80;;;;;;;15.11;83.31;100548.16;5027535;28;20040;-31
2022/04/29 00:49:06;;;;;;;9.57;7.32;;;;;;;15.23;84.48;100540.88;5027009;28;20022;-29
2022/04/29 00:51:32;;;;;;;9.50;7.45;;;;;;;14.94;86.68;100544.59;5028453;28;20025;-30
2022/04/29 00:54:00;;;;;;;8.75;6.75;;;;;;;14.99;85.56;100529.38;5028177;28;20040;-29
2022/04/29 00:56:29;;;;;;;8.32;7.07;;;;;;;15.13;84.81;100524.56;5028321;28;20040;-30
2022/04/29 00:59:09;;;;;;;9.10;6.93;;;;;;;14.91;85.30;100539.69;5027718;28;20116;-29
2022/04/29 01:01:37;;;;;;;9.82;7.10;;;;;;;14.96;85.17;100511.06;5028380;28;20026;-30
2022/04/29 01:04:03;;;;;;;9.55;7.22;;;;;;;14.79;85.73;100524.41;5026610;28;20033;-33
2022/04/29 01:06:30;;;;;;;9.60;6.90;;;;;;;14.53;87.04;100514.13;5026873;28;20034;-29
2022/04/29 01:08:55;;;;;;;10.10;7.32;;;;;;;14.77;85.98;100510.41;5027644;28;20040;-34
2022/04/29 01:11:24;;;;;;;9.00;7.15;;;;;;;14.72;86.30;100499.53;5027933;28;20021;-32
2022/04/29 01:13:51;;;;;;;10.25;7.40;;;;;;;14.50;88.52;100493.13;5026776;28;20120;-39
2022/04/29 01:16:20;;;;;;;12.45;7.70;;;;;;;14.51;89.58;100510.88;5028086;28;20034;-31
2022/04/29 01:18:48;;;;;;;11.95;8.00;;;;;;;14.79;86.81;100508.31;5026420;28;20036;-29
2022/04/29 01:21:14;;;;;;;11.27;8.02;;;;;;;14.70;85.75;100482.84;5027959;28;20203;-29
2022/04/29 01:23:41;;;;;;;9.15;7.43;;;;;;;14.67;86.75;100483.34;5027887;28;20116;-33
2022/04/29 01:26:06;;;;;;;10.85;8.32;;;;;;;15.07;85.42;100495.97;5027852;28;20054;-30
2022/04/29 01:28:34;;;;;;;10.07;7.97;;;;;;;14.95;84.60;100484.44;5027978;28;20026;-29
2022/04/29 01:30:59;;;;;;;9.60;7.63;;;;;;;15.08;84.01;100505.69;5027775;28;20128;-29
2022/04/29 01:33:28;;;;;;;9.52;7.60;;;;;;;15.21;81.39;100507.25;5026598;28;20116;-29
2022/04/29 01:35:55;;;;;;;10.57;7.97;;;;;;;15.11;80.30;100499.81;5025855;28;20060;-30
2022/04/29 01:38:20;;;;;;;10.40;7.32;;;;;;;15.05;78.34;100511.50;5026285;28;20422;-29
2022/04/29 01:40:46;;;;;;;9.70;7.95;;;;;;;14.70;81.25;100490.91;5026260;28;20029;-29
2022/04/29 01:43:11;;;;;;;11.88;8.15;;;;;;;14.59;82.61;100491.75;5027962;28;20022;-30
2022/04/29 01:45:37;;;;;;;9.40;7.93;;;;;;;14.54;85.04;100515.75;5026464;28;20071;-30
2022/04/29 01:48:03;;;;;;;10.77;8.43;;;;;;;14.39;84.76;100492.88;5027496;28;20025;-31
2022/04/29 01:50:28;;;;;;;12.55;8.57;;;;;;;14.42;85.16;100508.50;5027878;28;20037;-33
2022/04/29 01:52:54;;;;;;;11.88;8.35;;;;;;;14.14;86.22;100486.91;5027202;28;20022;-30
2022/04/29 01:55:19;;;;;;;12.38;8.30;;;;;;;14.19;85.07;100497.78;5026221;28;20029;-29
2022/04/29 01:57:49;;;;;;;10.95;8.57;;;;;;;14.32;86.63;100486.81;5027358;28;20048;-30
2022/04/29 02:00:15;;;;;;;10.00;8.18;;;;;;;14.58;86.46;100498.16;5027702;28;20057;-33
2022/04/29 02:02:40;;;;;;;10.40;7.65;;;;;;;14.54;84.95;100494.28;5025863;28;20057;-32
2022/04/29 02:05:06;;;;;;;9.85;8.02;;;;;;;14.41;84.35;100496.16;5027519;28;20523;-30
2022/04/29 02:07:31;;;;;;;9.55;7.55;;;;;;;14.36;85.41;100493.34;5027297;28;20025;-32
2022/04/29 02:09:57;;;;;;;10.45;7.75;;;;;;;14.36;85.96;100501.38;5027463;28;20032;-29
2022/04/29 02:12:22;;;;;;;11.00;8.98;;;;;;;14.59;86.74;100491.75;5027649;28;20028;-31
2022/04/29 02:14:48;;;;;;;10.35;7.60;;;;;;;14.59;86.24;100491.75;5026944;28;20041;-30
2022/04/29 02:17:13;;;;;;;10.80;7.82;;;;;;;14.38;87.22;100480.50;5027365;28;20101;-31
2022/04/29 02:19:40;;;;;;;12.52;8.25;;;;;;;14.46;87.65;100501.66;5027259;28;20029;-30
2022/04/29 02:22:07;;;;;;;9.52;8.18;;;;;;;14.30;89.07;100499.63;5027245;28;20068;-30
2022/04/29 02:24:32;;;;;;;10.95;8.35;;;;;;;14.22;91.03;100497.31;5026167;28;20091;-29
2022/04/29 02:26:59;;;;;;;12.45;9.63;;;;;;;14.54;89.55;100483.53;5027181;28;20029;-33
2022/04/29 02:29:27;;;;;;;11.23;8.90;;;;;;;14.65;87.60;100502.38;5025977;28;20043;-29
2022/04/29 02:31:53;;;;;;;12.63;8.75;;;;;;;14.62;86.55;100507.38;5027234;28;20025;-31
2022/04/29 02:34:19;;;;;;;12.90;8.90;;;;;;;14.46;86.18;100498.13;5027007;28;20421;-31
2022/04/29 02:36:44;;;;;;;14.27;8.65;;;;;;;14.47;86.17;100487.16;5058279;28;20059;-32
2022/04/29 02:39:10;;;;;;;10.68;8.65;;;;;;;14.31;87.65;100501.28;5027363;28;20045;-30
2022/04/29 02:41:36;;;;;;;12.38;8.73;;;;;;;14.64;87.72;100506.09;5027060;28;20032;-30
2022/04/29 02:44:03;;;;;;;10.48;8.50;;;;;;;14.65;86.95;100512.28;5027105;28;20680;-35
2022/04/29 02:46:28;;;;;;;11.10;8.40;;;;;;;14.42;89.11;100508.50;5027468;28;20048;-32
2022/04/29 02:48:53;;;;;;;8.98;7.45;;;;;;;14.56;88.08;100513.69;5030333;28;20461;-30
2022/04/29 02:51:19;;;;;;;11.05;7.75;;;;;;;14.38;87.95;100504.66;5030645;28;20030;-30
2022/04/29 02:53:44;;;;;;;10.15;8.05;;;;;;;14.23;89.95;100510.50;5030370;28;20022;-30
2022/04/29 02:56:10;;;;;;;10.95;7.72;;;;;;;14.01;90.75;100507.53;5029208;28;20493;-29
2022/04/29 02:58:35;;;;;;;11.27;8.18;;;;;;;14.17;90.51;100526.69;5030593;28;20505;-30
2022/04/29 03:01:02;;;;;;;11.10;8.73;;;;;;;14.36;89.29;100535.47;5030302;28;20468;-30
2022/04/29 03:03:28;;;;;;;13.23;9.32;;;;;;;14.65;87.50;100533.78;5030220;28;20413;-35
2022/04/29 03:05:53;;;;;;;13.48;9.27;;;;;;;14.32;87.58;100524.38;5030180;28;20116;-29
2022/04/29 03:08:19;;;;;;;12.90;10.13;;;;;;;14.47;85.56;100532.78;5030006;28;20136;-31
2022/04/29 03:10:46;;;;;;;13.70;10.90;;;;;;;14.46;87.36;100549.94;5030053;28;20026;-30
2022/04/29 03:13:12;;;;;;;15.18;10.27;;;;;;;14.31;87.67;100536.16;5030223;28;20401;-30
2022/04/29 03:15:38;;;;;;;15.05;10.90;;;;;;;14.47;86.54;100553.44;5028789;28;20041;-31
2022/04/29 03:18:18;;;;;;;14.93;10.90;;;;;;;14.39;85.91;100546.56;5030264;28;20560;-34
2022/04/29 03:20:45;;;;;;;16.15;12.10;;;;;;;14.40;85.52;100542.81;5029967;28;20122;-30
2022/04/29 03:23:12;;;;;;;17.42;12.57;;;;;;;14.30;86.06;100542.56;5028761;28;20064;-29
2022/04/29 03:25:40;;;;;;;19.65;12.18;;;;;;;14.19;87.04;100554.09;5028547;28;20037;-32
2022/04/29 03:28:06;;;;;;;18.42;12.48;;;;;;;14.17;88.06;100546.28;5029232;28;20098;-32
2022/04/29 03:30:32;;;;;;;18.35;12.32;;;;;;;14.31;87.65;100557.63;5028008;28;20033;-32
2022/04/29 03:32:59;;;;;;;18.13;12.63;;;;;;;14.32;88.03;100556.56;5029529;28;20048;-32
2022/04/29 03:35:25;;;;;;;20.45;12.82;;;;;;;14.39;87.25;100551.91;5029609;28;20044;-30
2022/04/29 03:37:53;;;;;;;19.73;13.88;;;;;;;14.37;88.36;100551.34;5028390;28;20522;-31
2022/04/29 03:40:23;;;;;;;19.70;12.48;;;;;;;14.31;88.47;100557.63;5029509;28;20060;-31
2022/04/29 03:42:54;;;;;;;16.02;11.82;;;;;;;14.21;87.62;100549.34;5028047;28;20072;-30
2022/04/29 03:45:21;;;;;;;20.63;13.40;;;;;;;14.26;88.26;100562.84;5029441;28;20040;-33
2022/04/29 03:47:47;;;;;;;21.10;13.85;;;;;;;14.36;86.81;100557.72;5029450;28;20402;-29
2022/04/29 03:50:13;;;;;;;21.52;14.10;;;;;;;14.22;86.72;100562.53;5029718;28;20037;-30
2022/04/29 03:52:50;;;;;;;22.70;15.00;;;;;;;14.15;86.97;100561.78;5029342;28;20497;-34
2022/04/29 03:55:17;;;;;;;24.85;15.35;;;;;;;13.85;88.11;100538.53;5029700;28;20057;-34
2022/04/29 03:57:43;;;;;;;20.58;14.65;;;;;;;13.92;88.30;100545.66;5029302;28;20030;-33
2022/04/29 04:00:09;;;;;;;24.33;15.68;;;;;;;14.00;88.25;100540.78;5029190;28;20029;-29
2022/04/29 04:02:35;;;;;;;21.92;15.88;;;;;;;14.17;87.96;100556.22;5027368;28;20021;-29
2022/04/29 04:05:00;;;;;;;22.48;15.45;;;;;;;14.19;87.55;100546.88;5029227;28;20095;-35
2022/04/29 04:07:26;;;;;;;22.52;14.93;;;;;;;14.25;87.47;100566.59;5029176;28;20087;-30
2022/04/29 04:09:51;;;;;;;22.42;15.43;;;;;;;14.19;88.39;100564.84;5027622;28;20029;-32
2022/04/29 04:12:16;;;;;;;19.17;13.55;;;;;;;14.23;88.16;100569.50;5029062;28;20031;-30
2022/04/29 04:14:42;;;;;;;20.45;14.88;;;;;;;14.16;88.56;100563.44;5027559;28;20029;-30
2022/04/29 04:17:08;;;;;;;21.77;15.25;;;;;;;14.49;87.76;100572.00;5028673;28;20667;-31
2022/04/29 04:19:35;;;;;;;20.40;13.75;;;;;;;14.45;87.92;100582.38;5029160;28;20044;-30
2022/04/29 04:22:04;;;;;;;24.30;14.15;;;;;;;14.35;88.15;100560.66;5027525;28;20438;-31
2022/04/29 04:24:29;;;;;;;22.20;14.25;;;;;;;14.57;87.79;100564.44;5028669;28;20077;-29
2022/04/29 04:26:56;;;;;;;21.50;14.95;;;;;;;14.57;87.06;100569.00;5028356;28;20032;-30
2022/04/29 04:29:21;;;;;;;21.73;14.35;;;;;;;14.62;87.76;100577.16;5028267;28;20037;-31
2022/04/29 04:31:47;;;;;;;19.70;14.23;;;;;;;14.70;86.96;100574.13;5028729;28;20413;-29
2022/04/29 04:36:57;;;;;;;22.27;15.02;;;;;;;14.81;86.44;100588.59;5028155;28;20128;-30
2022/04/29 04:39:23;;;;;;;21.42;14.80;;;;;;;14.78;85.57;100568.41;5028443;28;20030;-31
2022/04/29 04:41:49;;;;;;;22.90;15.50;;;;;;;14.86;84.86;100572.63;5028139;28;20405;-33
2022/04/29 04:44:14;;;;;;;22.88;15.25;;;;;;;14.59;85.29;100566.91;5028531;28;20877;-31
2022/04/29 04:46:40;;;;;;;21.92;14.95;;;;;;;14.60;86.43;100573.91;5028108;28;20025;-32
2022/04/29 04:49:05;;;;;;;20.60;14.10;;;;;;;14.72;85.78;100579.28;5028153;28;20112;-31
2022/04/29 04:51:31;;;;;;;22.75;16.15;;;;;;;14.66;88.08;100591.75;5028189;28;20037;-31
2022/04/29 04:53:57;;;;;;;20.40;14.55;;;;;;;14.79;87.32;100586.16;5028230;28;20095;-30
2022/04/29 04:56:22;;;;;;;21.67;14.60;;;;;;;15.00;85.48;100586.63;5028168;28;20029;-30
2022/04/29 04:58:48;;;;;;;21.77;14.55;;;;;;;15.10;85.32;100581.47;5027931;28;20406;-31
2022/04/29 05:01:14;;;;;;;20.33;14.80;;;;;;;15.22;84.31;100579.56;5027971;28;20033;-31
2022/04/29 05:03:40;;;;;;;19.83;14.48;;;;;;;15.21;84.50;100586.00;5028098;28;20021;-34
2022/04/29 05:06:05;;;;;;;20.02;13.57;;;;;;;15.05;83.82;100586.72;5026722;28;20080;-31
2022/04/29 05:08:31;;;;;;;20.55;14.07;;;;;;;15.24;83.53;100555.97;5027829;28;20477;-30
2022/04/29 05:10:56;;;;;;;19.92;14.77;;;;;;;15.09;82.82;100571.75;5027191;28;20032;-33
2022/04/29 05:13:21;;;;;;;20.17;13.15;;;;;;;15.05;83.15;100571.41;5028173;28;20768;-29
2022/04/29 05:15:47;;;;;;;20.20;13.30;;;;;;;15.16;82.55;100588.59;5028090;28;20083;-31
2022/04/29 05:18:12;;;;;;;23.38;14.80;;;;;;;15.26;82.11;100582.59;5027825;28;20096;-30
2022/04/29 05:20:38;;;;;;;19.52;12.80;;;;;;;15.23;82.00;100585.75;5027725;28;20022;-33
2022/04/29 05:23:03;;;;;;;23.38;13.57;;;;;;;15.37;82.07;100583.63;5027657;28;20029;-36
2022/04/29 05:25:29;;;;;;;21.67;13.95;;;;;;;15.59;80.90;100590.00;5027581;28;20037;-30
2022/04/29 05:27:54;;;;;;;19.42;13.75;;;;;;;15.60;79.98;100593.50;5027540;28;20018;-32
2022/04/29 05:30:19;;;;;;;23.73;15.25;;;;;;;15.70;81.16;100592.88;5028167;28;20056;-29
2022/04/29 05:32:46;;;;;;;18.02;12.50;;;;;;;15.55;78.15;100580.78;5027861;28;20030;-29
2022/04/29 05:35:13;;;;;;;20.08;14.05;;;;;;;15.62;78.78;100586.81;5027573;28;20104;-30
2022/04/29 05:37:40;;;;;;;19.58;12.70;;;;;;;15.50;77.80;100591.41;5026133;28;20139;-36
2022/04/29 05:42:51;;;;;;;19.45;13.10;;;;;;;15.57;78.67;100592.09;5027648;28;20086;-31
2022/04/29 05:45:16;;;;;;;19.02;12.65;;;;;;;15.74;77.63;100596.75;5027569;28;20108;-36
2022/04/29 05:47:42;;;;;;;21.15;13.35;;;;;;;15.72;77.06;100582.69;5027588;28;20072;-30
2022/04/29 05:50:07;;;;;;;21.13;14.15;;;;;;;15.78;77.26;100593.31;5027685;28;20033;-29
2022/04/29 05:52:33;;;;;;;20.60;14.00;;;;;;;15.97;77.09;100599.31;5027387;28;20133;-31
2022/04/29 05:54:58;;;;;;;19.65;12.90;;;;;;;15.85;74.68;100596.69;5027442;28;20032;-30
2022/04/29 05:57:24;;;;;;;21.15;13.63;;;;;;;15.86;77.37;100587.56;5027698;28;20029;-30
2022/04/29 05:59:50;;;;;;;20.30;13.80;;;;;;;15.94;73.79;100588.25;5027804;28;20041;-30
2022/04/29 06:02:15;;;;;;;19.90;14.18;;;;;;;16.28;76.84;100599.84;5027144;28;20033;-34
2022/04/29 06:04:41;;;;;;;20.85;14.23;;;;;;;16.36;75.90;100593.25;5027094;28;20090;-30
2022/04/29 06:07:06;;;;;;;19.63;13.40;;;;;;;16.67;74.51;100592.69;5026928;28;20029;-30
2022/04/29 06:09:31;;;;;;;20.45;13.85;;;;;;;16.59;72.94;100594.94;5027599;28;20072;-31
2022/04/29 06:11:57;;;;;;;19.52;13.43;;;;;;;16.45;74.81;100611.44;5027394;28;20180;-30
2022/04/29 06:14:22;;;;;;;20.92;13.88;;;;;;;16.83;75.10;100614.47;5027342;28;20021;-30
2022/04/29 06:16:48;;;;;;;19.73;14.02;;;;;;;16.79;73.96;100611.41;5027009;28;20474;-29
2022/04/29 06:19:13;;;;;;;20.40;15.75;;;;;;;16.73;73.86;100596.25;5027304;28;20413;-31
2022/04/29 06:21:40;;;;;;;18.67;14.07;;;;;;;16.76;73.03;100603.84;5027805;28;20493;-35
2022/04/29 06:24:06;;;;;;;20.17;13.90;;;;;;;16.93;73.07;100613.81;5031029;28;20103;-31
2022/04/29 06:26:32;;;;;;;19.25;14.07;;;;;;;16.97;72.29;100596.91;5031051;28;20061;-32
2022/04/29 06:28:58;;;;;;;21.02;13.35;;;;;;;16.85;73.06;100607.78;5012999;28;20210;-30
2022/04/29 06:31:23;;;;;;;18.60;12.93;;;;;;;16.82;73.04;100613.66;5031009;28;20026;-30
2022/04/29 06:33:48;;;;;;;21.58;14.55;;;;;;;16.66;74.12;100601.00;5031030;28;20029;-32
2022/04/29 06:36:14;;;;;;;19.55;13.27;;;;;;;16.55;75.48;100601.91;5030922;28;20069;-31
2022/04/29 06:38:40;;;;;;;19.60;13.68;;;;;;;16.64;74.37;100603.13;5030698;28;20071;-29
2022/04/29 06:41:06;;;;;;;19.48;14.32;;;;;;;16.85;73.76;100618.53;5030677;28;20470;-29
2022/04/29 06:43:31;;;;;;;18.92;13.57;;;;;;;16.86;74.30;100603.22;5030778;28;20104;-29
2022/04/29 06:45:57;;;;;;;16.95;13.07;;;;;;;16.38;73.46;100607.28;5030513;28;20026;-31
2022/04/29 06:48:23;;;;;;;18.05;12.98;;;;;;;16.54;73.50;100619.94;5029030;28;20116;-30
2022/04/29 06:50:48;;;;;;;21.70;13.95;;;;;;;16.43;74.52;100621.66;5030336;28;20107;-35
2022/04/29 06:53:14;;;;;;;21.48;14.77;;;;;;;16.74;73.84;100619.44;5030512;28;20061;-29
2022/04/29 06:55:40;;;;;;;20.70;14.48;;;;;;;16.94;73.01;100592.03;5030439;28;20117;-30
2022/04/29 06:58:06;;;;;;;21.30;13.68;;;;;;;17.10;73.02;100609.22;5030620;28;20021;-29
2022/04/29 07:00:33;;;;;;;19.40;13.02;;;;;;;17.42;72.78;100622.00;5030513;28;20033;-30
2022/04/29 07:03:02;;;;;;;19.88;13.70;;;;;;;17.36;74.22;100614.94;5028861;28;20033;-33
2022/04/29 07:05:30;;;;;;;17.63;13.00;;;;;;;17.02;72.29;100607.75;5030236;28;20041;-31
2022/04/29 07:07:56;;;;;;;22.60;14.98;;;;;;;17.27;72.82;100607.28;5029098;28;20037;-29
2022/04/29 07:10:22;;;;;;;19.75;15.02;;;;;;;17.73;71.25;100625.06;5030160;28;20034;-30
2022/04/29 07:12:47;;;;;;;20.58;13.85;;;;;;;17.73;70.63;100622.38;5028611;28;20133;-29
2022/04/29 07:15:14;;;;;;;21.17;14.90;;;;;;;17.85;70.61;100620.38;5030060;28;20044;-30
2022/04/29 07:17:40;;;;;;;22.77;14.65;;;;;;;18.16;68.13;100618.78;5028505;28;20030;-33
2022/04/29 07:20:07;;;;;;;19.90;14.52;;;;;;;18.15;68.59;100605.56;5028576;28;20059;-29
2022/04/29 07:22:33;;;;;;;20.90;14.63;;;;;;;18.70;68.67;100620.59;5028613;28;20026;-29
2022/04/29 07:24:59;;;;;;;17.30;12.48;;;;;;;18.40;67.22;100607.69;5029903;28;20033;-30
2022/04/29 07:27:28;;;;;;;17.83;13.90;;;;;;;18.43;66.66;100618.78;5029721;28;20038;-29
2022/04/29 07:29:53;;;;;;;20.60;14.20;;;;;;;18.38;68.81;100609.81;5029707;28;20083;-30
2022/04/29 07:32:19;;;;;;;17.40;13.05;;;;;;;18.71;66.80;100619.53;5029340;28;20037;-29
2022/04/29 07:42:56;;;;;;;19.40;13.93;;;;;;;18.77;67.24;100617.66;5029688;28;20115;-30
2022/04/29 07:45:21;;;;;;;13.98;10.95;;;;;;;18.58;64.74;100622.69;5029826;28;20482;-30
2022/04/29 07:47:47;;;;;;;15.65;12.25;;;;;;;18.71;67.05;100627.63;5029451;28;20493;-29
2022/04/29 07:50:13;;;;;;;18.48;13.50;;;;;;;18.29;65.91;100620.28;5029416;28;20054;-33
2022/04/29 07:52:38;;;;;;;18.50;12.63;;;;;;;18.11;66.76;100636.84;5027752;28;20041;-34
2022/04/29 07:55:04;;;;;;;17.95;13.85;;;;;;;18.02;67.73;100623.81;5028033;28;20428;-29
2022/04/29 07:57:30;;;;;;;15.48;12.43;;;;;;;18.56;66.07;100611.31;5029383;28;20521;-30
2022/04/29 07:59:55;;;;;;;17.63;13.40;;;;;;;18.96;65.40;100618.94;5029220;28;20060;-31
2022/04/29 08:02:21;;;;;;;17.77;13.63;;;;;;;19.28;65.86;100618.81;5029401;28;20112;-32
2022/04/29 08:04:46;;;;;;;17.40;13.57;;;;;;;19.95;64.92;100619.06;5029221;28;20099;-30
2022/04/29 08:07:12;;;;;;;17.00;12.50;;;;;;;20.15;60.29;100612.06;5029236;28;20481;-29
2022/04/29 08:09:38;;;;;;;17.13;12.32;;;;;;;19.78;60.27;100613.91;5029096;28;20449;-29
2022/04/29 08:12:04;;;;;;;16.40;12.10;;;;;;;19.21;62.34;100617.44;5028957;28;20068;-37
2022/04/29 08:14:31;;;;;;;14.77;12.20;;;;;;;19.42;61.95;100623.75;5027739;28;20452;-34
2022/04/29 08:16:57;;;;;;;15.88;12.00;;;;;;;19.53;63.74;100603.75;5028852;28;20043;-30
2022/04/29 08:19:23;;;;;;;16.27;12.70;;;;;;;19.81;60.66;100618.75;5029002;28;20021;-29
2022/04/29 08:21:49;;;;;;;15.68;11.82;;;;;;;20.00;60.31;100597.44;5028978;28;20033;-30
2022/04/29 08:24:15;;;;;;;14.48;10.90;;;;;;;19.87;58.37;100593.31;5028990;28;20028;-35
2022/04/29 08:26:40;;;;;;;13.02;10.68;;;;;;;20.25;59.44;100614.78;5028553;28;20037;-30
2022/04/29 08:29:06;;;;;;;13.48;11.00;;;;;;;20.29;59.65;100607.75;5028761;28;20066;-29
2022/04/29 08:31:31;;;;;;;14.88;9.35;;;;;;;19.97;58.58;100584.41;5028364;28;20595;-32
2022/04/29 08:33:57;;;;;;;12.10;10.45;;;;;;;20.11;60.54;100608.28;5028224;28;20021;-31
2022/04/29 08:36:22;;;;;;;14.75;11.02;;;;;;;19.74;60.65;100593.84;5028491;28;20049;-31
2022/04/29 08:38:48;;;;;;;13.02;10.52;;;;;;;20.22;60.62;100590.94;5028070;28;20048;-29
2022/04/29 08:41:18;;;;;;;11.18;8.88;;;;;;;20.10;55.65;100582.25;5028247;28;20037;-31
2022/04/29 08:43:45;;;;;;;11.10;9.23;;;;;;;20.40;59.85;100584.97;5027048;28;20053;-33
2022/04/29 08:46:11;;;;;;;14.85;11.43;;;;;;;20.75;60.67;100602.31;5027705;28;20029;-30
2022/04/29 08:48:37;;;;;;;13.52;11.10;;;;;;;20.97;59.12;100599.28;5026142;28;20119;-35
2022/04/29 08:51:03;;;;;;;13.68;10.02;;;;;;;21.33;57.43;100584.78;5028310;28;20112;-30
2022/04/29 08:53:28;;;;;;;10.82;8.10;;;;;;;21.16;54.85;100599.50;5027452;28;20184;-33
2022/04/29 08:58:38;;;;;;;11.00;8.65;;;;;;;21.03;54.97;100586.53;5026600;28;20121;-30
2022/04/29 09:01:16;;;;;;;11.00;8.50;;;;;;;21.01;56.11;100589.50;5027912;28;20129;-32
2022/04/29 09:03:45;;;;;;;9.82;7.72;;;;;;;21.61;52.88;100580.59;5027707;28;20022;-32
2022/04/29 09:06:12;;;;;;;11.35;8.85;;;;;;;21.58;55.68;100564.91;5027825;28;20151;-30
2022/04/29 09:08:42;;;;;;;11.48;9.55;;;;;;;21.62;55.10;100571.41;5026283;28;20029;-30
2022/04/29 09:11:09;;;;;;;11.88;9.20;;;;;;;21.38;54.41;100576.63;5026840;28;20524;-31
2022/04/29 09:13:37;;;;;;;10.07;8.53;;;;;;;20.87;53.47;100580.34;5028010;28;20492;-37
2022/04/29 09:16:12;;;;;;;12.70;8.98;;;;;;;20.98;56.23;100583.81;5027827;28;20033;-31
2022/04/29 09:18:48;;;;;;;11.13;8.50;;;;;;;21.20;55.10;100581.56;5026304;28;20716;-30
2022/04/29 09:21:19;;;;;;;11.32;8.95;;;;;;;21.08;53.97;100564.81;5028172;28;20033;-30
2022/04/29 09:23:56;;;;;;;10.15;8.13;;;;;;;21.27;54.01;100565.84;5027726;28;20030;-29
2022/04/29 09:26:27;;;;;;;12.35;9.48;;;;;;;21.55;54.71;100571.69;5027964;28;20033;-30
2022/04/29 09:28:55;;;;;;;12.15;9.13;;;;;;;21.53;53.51;100560.28;5027205;28;20033;-33
2022/04/29 09:31:20;;;;;;;11.65;8.75;;;;;;;21.62;53.50;100544.25;5026133;28;20616;-29
2022/04/29 09:33:57;;;;;;;11.70;8.90;;;;;;;21.36;54.81;100574.19;5027506;28;20117;-29
2022/04/29 09:36:25;;;;;;;10.13;8.18;;;;;;;21.28;55.08;100555.78;5026012;28;20186;-29
2022/04/29 09:41:58;;;;;;;10.05;8.80;;;;;;;21.20;56.02;100559.88;5027466;28;20103;-30
2022/04/29 09:44:37;;;;;;;9.85;8.23;;;;;;;20.50;55.33;100553.56;5009705;28;20033;-30
2022/04/29 09:47:13;;;;;;;11.98;9.48;;;;;;;20.18;56.36;100551.94;5027771;28;20040;-31
2022/04/29 09:49:40;;;;;;;12.00;9.27;;;;;;;20.45;59.07;100574.16;5027517;28;20421;-30
2022/04/29 09:52:07;;;;;;;11.20;8.95;;;;;;;20.72;56.42;100564.94;5027314;28;20026;-32
2022/04/29 09:54:39;;;;;;;13.95;9.43;;;;;;;20.24;57.64;100551.66;5026289;28;20033;-31
2022/04/29 09:57:10;;;;;;;10.55;8.70;;;;;;;20.31;55.05;100537.03;5029374;28;20083;-29
2022/04/29 09:59:46;;;;;;;10.98;8.90;;;;;;;20.47;55.79;100558.44;5031661;28;20026;-30
2022/04/29 10:02:16;;;;;;;12.88;9.85;;;;;;;20.58;55.57;100555.72;5031486;28;20478;-31
2022/04/29 10:04:47;;;;;;;11.43;9.20;;;;;;;20.64;56.39;100555.44;5029618;28;20033;-29
2022/04/29 10:07:17;;;;;;;12.02;9.10;;;;;;;20.54;53.99;100522.13;5029943;28;20843;-32
2022/04/29 10:09:53;;;;;;;14.07;9.30;;;;;;;20.79;54.53;100543.75;5030013;28;20056;-33
2022/04/29 10:12:21;;;;;;;10.20;8.40;;;;;;;20.72;53.08;100535.13;5029930;28;20052;-30
2022/04/29 10:14:51;;;;;;;11.63;9.13;;;;;;;20.71;52.89;100546.22;5031212;28;20053;-31
2022/04/29 10:22:52;;;;;;;10.85;8.70;;;;;;;20.20;56.90;100530.81;5030824;28;20036;-30
2022/04/29 10:25:20;;;;;;;14.57;9.38;;;;;;;20.50;56.25;100534.59;5031020;28;20108;-30
2022/04/29 10:27:46;;;;;;;10.55;8.35;;;;;;;20.70;54.58;100552.72;5030684;28;20673;-33
2022/04/29 10:30:11;;;;;;;12.18;9.48;;;;;;;20.59;54.73;100532.97;5031311;28;20056;-29
2022/04/29 10:33:24;;;;;;;11.68;9.57;;;;;;;20.40;53.08;100546.25;5031110;28;20108;-29
2022/04/29 10:35:56;;;;;;;13.45;10.15;;;;;;;20.38;55.57;100527.56;5030633;28;20496;-30
2022/04/29 10:38:31;;;;;;;12.68;9.30;;;;;;;20.52;53.76;100535.13;5030745;28;20131;-29
2022/04/29 10:41:17;;;;;;;11.77;9.40;;;;;;;20.62;54.21;100537.84;5030627;28;20102;-29
2022/04/29 10:43:51;;;;;;;10.60;8.32;;;;;;;20.54;52.98;100546.50;5030805;28;20104;-29
2022/04/29 10:46:29;;;;;;;12.27;9.48;;;;;;;20.35;55.05;100533.53;5030241;28;20049;-31
2022/04/29 10:48:55;;;;;;;10.88;8.48;;;;;;;20.59;53.45;100527.53;5030464;28;20025;-32
2022/04/29 10:51:27;;;;;;;11.18;9.18;;;;;;;20.70;53.83;100537.28;5030294;28;20041;-30
2022/04/29 10:53:56;;;;;;;12.55;9.13;;;;;;;20.75;52.54;100525.63;5030665;28;20076;-29
2022/04/29 10:56:30;;;;;;;11.63;8.88;;;;;;;20.79;54.29;100522.06;5029035;28;20073;-30
2022/04/29 10:59:11;;;;;;;10.48;8.75;;;;;;;20.93;51.55;100516.06;5028535;28;20037;-29
2022/04/29 11:01:39;;;;;;;10.68;8.65;;;;;;;20.85;52.57;100509.31;5030364;28;20549;-29
2022/04/29 11:04:06;;;;;;;13.23;8.77;;;;;;;20.96;51.46;100527.16;5029023;28;20564;-36
2022/04/29 11:06:57;;;;;;;12.20;9.20;;;;;;;21.21;52.37;100523.53;5030151;28;20038;-29
2022/04/29 11:09:35;;;;;;;9.07;7.75;;;;;;;21.15;49.67;100529.28;5027401;28;20049;-30
2022/04/29 11:12:02;;;;;;;10.23;8.25;;;;;;;21.19;50.79;100519.50;5030110;28;20041;-30
2022/04/29 11:14:28;;;;;;;15.23;8.40;;;;;;;21.19;51.06;100508.66;5030310;28;20033;-28
2022/04/29 11:16:57;;;;;;;13.35;8.00;;;;;;;21.43;51.05;100508.78;5028338;28;20037;-29
2022/04/29 11:19:29;;;;;;;9.32;7.80;;;;;;;21.12;51.27;100497.28;5029966;28;20034;-29
2022/04/29 11:24:44;;;;;;;9.15;7.95;;;;;;;21.01;51.59;100513.59;5030007;28;20409;-29
2022/04/29 11:27:10;;;;;;;11.63;8.87;;;;;;;21.17;51.95;100517.06;5029686;28;20120;-30
2022/04/29 11:29:43;;;;;;;11.40;9.18;;;;;;;21.24;52.83;100506.69;5029723;28;20033;-31
2022/04/29 11:32:09;;;;;;;12.70;8.70;;;;;;;20.88;53.47;100500.63;5027973;28;20029;-29
2022/04/29 11:34:35;;;;;;;11.38;8.63;;;;;;;20.74;54.66;100497.72;5029851;28;20036;-31
2022/04/29 11:37:01;;;;;;;9.75;7.65;;;;;;;20.54;53.22;100503.16;5029271;28;20042;-31
2022/04/29 11:39:26;;;;;;;11.00;8.18;;;;;;;20.55;54.02;100499.34;5029744;28;20106;-30
2022/04/29 11:41:59;;;;;;;10.68;8.15;;;;;;;20.42;55.25;100489.91;5029293;28;20030;-29